Flight Track Log - Related Links

Times and Time Zones

All times are in EDT time to prevent confusion due to time zone crossing. See the EJA947 flight status page for this flight to view local times or setup timezone preferences in your user account.


Time Position Orientation Groundspeed Altitude Reporting Facility
EDT Latitude Longitude Course Direction KTS MPH feet Rate Location/Type
Mon 04:59:34 PM 35.1417 -94.4147 180° South 273 314 10,800  Level Memphis Center
Mon 05:00:34 PM 35.0569 -94.4514 200° South 292 336 12,500 1,900 Climbing Memphis Center
Mon 05:01:34 PM 34.9639 -94.4900 199° South 331 381 14,600 1,950 Climbing Memphis Center
Mon 05:02:34 PM 34.8667 -94.5308 199° South 360 414 16,400 2,000 Climbing Memphis Center
Mon 05:03:00 PM 34.7227 -94.5776 198° South  Level FlightAware Approximate
Mon 05:03:34 PM 34.7522 -94.5858 202° Southwest 393 452 18,600  Level Memphis Center
Mon 05:04:00 PM 34.5981 -94.6000 180° South  Level FlightAware Approximate
Mon 05:04:07 PM 34.6989 -94.6025 194° South 399 459 19,800  Level Fort Worth Center
Mon 05:05:07 PM 34.5950 -94.6211 188° South 399 459 21,400 1,600 Climbing Fort Worth Center
Mon 05:06:07 PM 34.4719 -94.6250 181° South 425 489 23,000 1,200 Climbing Fort Worth Center
Mon 05:07:07 PM 34.3389 -94.6369 184° South 455 524 23,800 1,000 Climbing Fort Worth Center
Mon 05:08:07 PM 34.2014 -94.6436 182° South 481 554 25,000 600 Climbing Fort Worth Center
Mon 05:09:07 PM 34.0678 -94.6481 182° South 487 560 25,000  Level Fort Worth Center
Mon 05:10:07 PM 33.9386 -94.6597 184° South 480 552 25,000 600 Level Fort Worth Center
Mon 05:11:07 PM 33.8094 -94.6686 183° South 473 544 26,200 1,500 Climbing Fort Worth Center
Mon 05:12:07 PM 33.6803 -94.6753 182° South 467 537 28,000 1,815 Climbing Fort Worth Center
Mon 05:13:06 PM 33.5419 -94.6547 173° South 480 552 29,800 2,000 Climbing Fort Worth Center
Mon 05:14:07 PM 33.4078 -94.5319 143° Southeast 516 594 32,000 1,983 Climbing Fort Worth Center
Mon 05:15:07 PM 33.2864 -94.4217 143° Southeast 533 613 33,800 1,500 Climbing Fort Worth Center
Mon 05:16:07 PM 33.1644 -94.3042 141° Southeast 553 636 35,000 600 Climbing Fort Worth Center
Mon 05:17:07 PM 33.0447 -94.1917 142° Southeast 558 642 35,000  Level Fort Worth Center
Mon 05:18:07 PM 32.9250 -94.0772 141° Southeast 558 642 35,000 -350 Level Fort Worth Center
Mon 05:19:07 PM 32.8072 -93.9706 143° Southeast 541 623 34,300 -500 Descending Fort Worth Center
Mon 05:20:07 PM 32.6958 -93.8661 142° Southeast 528 608 34,000 -150 Descending Fort Worth Center
Mon 05:21:07 PM 32.5822 -93.7622 142° Southeast 523 602 34,000  Level Fort Worth Center
Mon 05:22:07 PM 32.4706 -93.6558 141° Southeast 518 596 34,000  Level Fort Worth Center
Mon 05:23:07 PM 32.3433 -93.5947 158° South 501 577 34,000  Level Fort Worth Center
Mon 05:24:07 PM 32.2100 -93.6028 183° South 470 541 34,000  Level Fort Worth Center
Mon 05:25:07 PM 32.0811 -93.6181 186° South 471 542 34,000  Level Fort Worth Center
Mon 05:26:07 PM 31.9497 -93.6258 183° South 471 542 34,000  Level Fort Worth Center
Mon 05:27:42 PM 31.7481 -93.6344 182° South 470 541 34,000  Level Houston Center
Mon 05:28:44 PM 31.6275 -93.6744 196° South 451 519 34,000  Level Houston Center
Mon 05:29:46 PM 31.5244 -93.7517 213° Southwest 440 506 34,000  Level Houston Center
Mon 05:30:48 PM 31.4211 -93.8281 212° Southwest 438 504 34,000  Level Houston Center
Mon 05:31:50 PM 31.3192 -93.9044 213° Southwest 436 502 34,000  Level Houston Center
Mon 05:32:52 PM 31.1964 -93.9975 213° Southwest 436 502 34,000 -774 Level Houston Center
Mon 05:33:54 PM 31.0931 -94.0736 212° Southwest 436 502 32,400 -1,920 Descending Houston Center
Mon 05:34:57 PM 30.9878 -94.1517 212° Southwest 442 509 30,000 -2,304 Descending Houston Center
Mon 05:35:59 PM 30.8803 -94.2322 213° Southwest 453 521 27,600 -2,323 Descending Houston Center
Mon 05:37:01 PM 30.7742 -94.3097 212° Southwest 448 516 25,200 -2,444 Descending Houston Center
Mon 05:37:47 PM 30.6869 -94.3756 213° Southwest 433 498 23,200 -2,323 Descending Houston Center
Mon 05:38:03 PM 30.6683 -94.3886 211° Southwest 434 499 22,800 -2,108 Descending Houston Center
Mon 05:38:24 PM 30.6281 -94.4172 211° Southwest 394 453 21,900 -1,935 Descending Houston Center
Mon 05:39:05 PM 30.5800 -94.4536 213° Southwest 391 450 20,800 -1,869 Descending Houston Center
Mon 05:39:25 PM 30.5458 -94.4789 213° Southwest 356 410 20,000 -1,935 Descending Houston Center
Mon 05:40:07 PM 30.4922 -94.5233 216° Southwest 341 392 18,800 -1,742 Descending Houston Center
Mon 05:40:27 PM 30.4731 -94.5517 232° Southwest 304 350 18,200 -1,548 Descending Houston Center
Mon 05:41:09 PM 30.4411 -94.6014 233° Southwest 309 356 17,200 -1,791 Descending Houston Center
Mon 05:41:34 PM 30.4167 -94.6414 235° Southwest 309 356 16,200 -1,742 Descending Houston Center
Mon 05:42:11 PM 30.3897 -94.6828 233° Southwest 313 360 15,400 -1,574 Descending Houston Center
Mon 05:42:35 PM 30.3633 -94.7208 231° Southwest 311 358 14,600 -1,452 Descending Houston Center
Mon 05:43:13 PM 30.3397 -94.7594 235° Southwest 302 348 13,900 -1,548 Descending Houston Center
Mon 05:43:37 PM 30.3158 -94.7947 232° Southwest 280 322 13,000 -1,429 Descending Houston Center
Mon 05:44:16 PM 30.2931 -94.8314 234° Southwest 284 327 12,400 -1,475 Descending Houston Center
Mon 05:44:38 PM 30.2664 -94.8711 232° Southwest 281 323 11,500 -1,452 Descending Houston Center
Mon 05:45:18 PM 30.2458 -94.9033 234° Southwest 281 323 10,900 -1,452 Descending Houston Center
Mon 05:45:40 PM 30.2169 -94.9475 233° Southwest 296 341 10,000 -871 Descending Houston Center
Mon 05:46:20 PM 30.1869 -94.9939 233° Southwest 291 335 10,000 -98 Level Houston Center
Mon 05:46:41 PM 30.1672 -95.0239 233° Southwest 290 334 9,900  Descending Houston Center
Mon 05:47:22 PM 30.1378 -95.0678 232° Southwest 291 335 10,000 98 Climbing Houston Center
Mon 05:47:42 PM 30.1056 -95.0822 201° Southwest 295 339 10,000  Level Houston Center
Mon 05:48:24 PM 30.0611 -95.1019 201° Southwest 297 342 10,000  Level Houston Center
Mon 05:48:43 PM 30.0267 -95.1161 200° South 295 339 10,000  Level Houston Center
Mon 05:49:26 PM 29.9847 -95.1353 202° Southwest 295 339 10,000 -97 Level Houston Center
Mon 05:49:45 PM 29.9500 -95.1497 200° South 295 339 9,900  Descending Houston Center
Mon 05:50:28 PM 29.9078 -95.1683 201° Southwest 294 338 10,000 -689 Climbing Houston Center
Mon 05:50:46 PM 29.8694 -95.1861 202° Southwest 294 338 9,200 -1,742 Descending Houston Center
Mon 05:51:30 PM 29.8183 -95.2075 200° South 289 333 8,200 -1,574 Descending Houston Center
Mon 05:51:47 PM 29.7947 -95.2169 199° South 276 318 7,600 -1,548 Descending Houston Center
Mon 05:52:32 PM 29.7469 -95.2372 200° South 278 320 6,600 -1,548 Descending Houston Center
Mon 05:52:49 PM 29.7236 -95.2447 196° South 265 305 6,000 -581 Descending Houston Center
Mon 05:53:34 PM 29.6764 -95.2567 192° South 266 306 6,000 -97 Level Houston Center
Mon 05:53:51 PM 29.6497 -95.2633 192° South 271 312 5,900  Descending Houston Center
Mon 05:54:36 PM 29.6025 -95.2747 192° South 277 319 6,000 -689 Climbing Houston Center
Mon 05:54:52 PM 29.5697 -95.2825 192° South 276 318 5,200 -2,032 Descending Houston Center
Mon 05:55:38 PM 29.5394 -95.3292 233° Southwest 276 318 3,900 -1,967 Descending Houston Center
Mon 05:55:53 PM 29.5403 -95.3511 273° West 263 303 3,200 -871 Descending Houston Center
Mon 05:56:40 PM 29.5608 -95.4011 295° West 244 281 3,000 -110 Descending Houston Center
Mon 05:57:42 PM 29.5906 -95.4494 305° West 194 223 3,000 48 Level Houston Center
Mon 05:58:44 PM 29.6197 -95.4994 304° West 187 215 3,100 -435 Climbing Houston Center
Mon 05:59:46 PM 29.6500 -95.5525 303° West 193 222 2,100 -667 Descending Houston Center
Mon 06:00:59 PM 29.6864 -95.6197 302° West 181 208 1,600 -339 Descending Houston Center
Mon 06:01:50 PM 29.6803 -95.6578 260° West 183 211 1,400 -584 Descending Houston Center
Mon 06:02:52 PM 29.6447 -95.6594 182° South 152 175 500 -871 Descending Houston Center

Login

Don't have an account? Register now (free) for customized features, flight alerts, and more!